world map with UASK marked

UASK - Airport

This information may not be accurate or current and is not valid for navigation or flight planning. No warranty of fitness for any purpose is made or implied.

flag of Kazakhstan

Donate via PayPal

Additional information is available on the NEW Great Circle Mapper

Location
City:  Oskemen [Oskemen Airport, Shyghys Qazaqstan, Kazakhstan
Near (Alt.):Ust-Kamenogorsk Airport
ICAO / IATA:UASK / UKK

Details
Type:Airport (Aerodrome, Airfield)
Use:Public/Civil
Latitude:50°02'10"N (50.036111)
Longitude:82°29'39"E (82.494167)
Elevation:938 ft (286 m)
Runways:1
Longest:8235 × 138 ft (2510 × 42 m)

Time
Timezone:UTC+6 (DST+7)

Weather
METAR:UASK  161230Z 26002MPS 7000 -SN OVC050 M06/M09 Q1040 R30/490342 NOSIG RMK QFE754/1005
TAF:UASK  (expired)

Related Locations
Nearby:
Farthest:PNT: 11345 mi / 18257 km
Puerto Natales [Teniente Julio Gallardo], MA, CL

Find:

   beyond  
but within

Other Information
Maps:
Sources:

  


 


Great Circle Mapper   Great Circle Mapper
Great Circle Mapper FAQ   Great Circle Mapper FAQ
  Karl's Home Page
KLSē   KLSē Home
   GC on Facebook
Airlines of the World   Airlines of the World
Donate via PayPal


Copyright © 2004-2018, Karl L. Swartz. All rights reserved.
All trademarks mentioned herein belong to their respective owners.

Please see credits for attribution and copyright information.

Karl Swartz <karl@kls2.com>
  Powered by FreeBSD
Valid HTML 4.01!
Labeled with ICRA
hCard Microformat
Geo Microformat